Airfield :
LOGIN :

Register | Disclaimer

   EN    FR    IT 

 










Legend :    VFR   Marginal VFR   IFR   Intensive IFR   Very Intensive IFR
Visi :
Ceiling :
>= 8 km
>= 3000ft
5 to 8 km
1000 to 3000 ft
1500m to 5 km
500 to 1000 ft
800 to 1500m
200 to 500 ft
< 800m
< 200 ft
Symbols :   Thunderstorms  Fog  Heavy snow  Heavy precipitations  Wind > 20 kt
SIGMETs :     Misc.  Thunderstorms  Icing  Turbulence  Mountain Waves  Volcanic Ashes







- Airport Elevation : 87 ft
- IATA code : FSC
- Download approach charts


LFKF - Figari

CURRENT METAR :
  • 151430Z AUTO 06011KT 020V090 9999 FEW025 SCT220 22/16 Q1014 NOSIG

EXPIRED METARs :
  • 151400Z AUTO 06014KT 030V090 9999 FEW026 23/16 Q1014 NOSIG
  • 151330Z AUTO 06013KT 030V090 9999 FEW026 BKN210 23/16 Q1014 NOSIG
  • 151300Z AUTO 07013KT 040V100 9999 FEW038 23/16 Q1014 NOSIG
  • 151230Z AUTO 06014KT 030V090 9999 FEW033 BKN040 BKN230 23/15 Q1014 NOSIG
  • 151200Z AUTO 05014KT 020V090 9999 BKN032 BKN039 24/15 Q1014 NOSIG

TAF TAF LFKF
Valid from the 15 at 15:00 until the 16 at 15:00 UTC


151400Z 1515/1615 06012KT 9999 FEW025 BKN040
TEMPO 1518/1612 4000 RA BKN010 OVC025
PROB30
TEMPO 1602/1606 BKN010 FEW025CB BKN025
BECMG 1613/1615 FEW030 SCT060
No reported NOTAMs for that airfield.
2 SIGMETs reported for the Marseille FIR (LFMM) :
 
Severe turbulence
LFMM SIGMET 13 VALID 151400/151800 LFPW
LFMM MARSEILLE FIR/UIR SEV TURB FCST WI N4400 E00245 - N4600 E00300 - N4600 E00315 - N4345 E00415 - N4345 E00700 - N4245 E00700 - N4330 E00300 - N4400 E00245 SFC/FL070 STNR NC=
SIGMET 11 cancelation
LFMM SIGMET 12 VALID 151250/151400 LFPW
LFMM MARSEILLE FIR/UIR CNL SIGMET 11 151200/151400=



MET'MAP, your aeronautical weather chart ! - Copyright ORBIFLY December 2007 - Disclaimer

ORBIFLY MET'MAP TEAM :

Programming & Development : Alexandra Zaïnal
Concept & Development : Baudouin d'Aumeries
Co-Development & Prog : Marc-Olivier Méhu
Technical & hardware support : Manuel Goepfert

Contact : metmap@orbifly.com




SOURCES & CREDITS :

   NOAA